createdAt,value
2019-03-01T00:00:53.519Z,6.14
2019-03-01T00:01:53.508Z,6.15
2019-03-01T00:02:53.559Z,6.12
2019-03-01T00:03:53.521Z,6.11
2019-03-01T00:04:53.475Z,6.11
2019-03-01T00:05:53.464Z,6.11
2019-03-01T00:06:53.458Z,6.01
2019-03-01T00:07:53.445Z,6.11
2019-03-01T00:08:53.434Z,6.04
2019-03-01T00:09:53.456Z,6.12
2019-03-01T00:10:53.411Z,6.19
2019-03-01T00:11:53.403Z,6.14
2019-03-01T00:12:53.387Z,6.17
2019-03-01T00:13:53.389Z,6.12
2019-03-01T00:14:53.366Z,6.12
2019-03-01T00:15:53.389Z,6.08
2019-03-01T00:16:53.345Z,6.00
2019-03-01T00:17:53.333Z,6.03
2019-03-01T00:18:53.322Z,5.94
2019-03-01T00:19:53.312Z,5.93
2019-03-01T00:20:53.299Z,5.81
2019-03-01T00:21:53.325Z,5.76
2019-03-01T00:22:53.279Z,5.65
2019-03-01T00:23:53.271Z,5.78
2019-03-01T00:24:53.260Z,5.79
2019-03-01T00:25:53.249Z,5.71
2019-03-01T00:26:53.234Z,5.75
2019-03-01T00:27:53.261Z,5.74
2019-03-01T00:28:53.214Z,5.71
2019-03-01T00:29:53.200Z,5.76
2019-03-01T00:30:53.192Z,5.78
2019-03-01T00:31:53.178Z,5.74
2019-03-01T00:32:53.171Z,5.76
2019-03-01T00:33:53.196Z,5.74
2019-03-01T00:34:53.148Z,5.71
2019-03-01T00:35:53.136Z,5.72
2019-03-01T00:36:53.123Z,5.72
2019-03-01T00:37:53.118Z,5.68
2019-03-01T00:38:53.103Z,5.81
2019-03-01T00:39:53.132Z,5.71
2019-03-01T00:40:53.083Z,5.83
2019-03-01T00:41:53.073Z,5.79
2019-03-01T00:42:53.065Z,5.74
2019-03-01T00:43:53.069Z,5.75
2019-03-01T00:44:53.042Z,5.79
2019-03-01T00:45:53.065Z,5.67
2019-03-01T00:46:53.027Z,5.71
2019-03-01T00:47:53.005Z,5.86
2019-03-01T00:48:52.994Z,5.81
2019-03-01T00:49:52.982Z,5.81
2019-03-01T00:50:52.974Z,5.85
2019-03-01T00:51:52.999Z,5.82
2019-03-01T00:52:52.951Z,5.86
2019-03-01T00:53:52.943Z,5.74
2019-03-01T00:54:52.932Z,5.81
2019-03-01T00:55:52.918Z,5.74
2019-03-01T00:56:52.904Z,5.74
2019-03-01T00:57:52.937Z,5.71
2019-03-01T00:58:52.885Z,5.67
2019-03-01T00:59:52.875Z,5.71
2019-03-01T01:00:52.860Z,5.72
2019-03-01T01:01:52.851Z,5.63
2019-03-01T01:02:52.839Z,5.65
2019-03-01T01:03:52.864Z,5.65
2019-03-01T01:04:52.822Z,5.61
2019-03-01T01:05:52.809Z,5.61
2019-03-01T01:06:52.795Z,5.71
2019-03-01T01:07:52.784Z,5.67
2019-03-01T01:08:52.777Z,5.67
2019-03-01T01:09:52.804Z,5.68
2019-03-01T01:10:52.754Z,5.68
2019-03-01T01:11:52.742Z,5.67
2019-03-01T01:12:52.731Z,5.71
2019-03-01T01:13:52.720Z,5.61
2019-03-01T01:14:52.746Z,5.65
2019-03-01T01:15:52.734Z,5.60
2019-03-01T01:16:52.686Z,5.63
2019-03-01T01:17:52.675Z,5.63
2019-03-01T01:18:52.664Z,5.65
2019-03-01T01:19:52.654Z,5.61
2019-03-01T01:20:52.643Z,5.76
2019-03-01T01:21:52.672Z,5.75
2019-03-01T01:22:52.623Z,5.76
2019-03-01T01:23:52.609Z,5.72
2019-03-01T01:24:52.600Z,5.82
2019-03-01T01:25:52.586Z,5.67
2019-03-01T01:26:52.582Z,5.72
2019-03-01T01:27:52.608Z,5.78
2019-03-01T01:28:52.561Z,5.75
2019-03-01T01:29:52.545Z,5.79
2019-03-01T01:30:52.544Z,5.85
2019-03-01T01:31:52.526Z,5.85
2019-03-01T01:32:52.514Z,5.81
2019-03-01T01:33:52.540Z,5.82
2019-03-01T01:34:52.491Z,5.72
2019-03-01T01:35:52.480Z,5.78
2019-03-01T01:36:52.469Z,5.82
2019-03-01T01:37:52.459Z,5.79
2019-03-01T01:38:52.449Z,5.78
2019-03-01T01:39:52.475Z,5.85
2019-03-01T01:40:52.426Z,5.78
2019-03-01T01:41:52.417Z,5.89
2019-03-01T01:42:52.405Z,5.78
2019-03-01T01:43:52.396Z,5.94
2019-03-01T01:44:52.386Z,5.89
2019-03-01T01:45:52.416Z,5.94
2019-03-01T01:46:52.364Z,5.93
2019-03-01T01:47:52.393Z,5.91
2019-03-01T01:48:52.344Z,5.94
2019-03-01T01:49:52.331Z,5.96
2019-03-01T01:50:52.325Z,6.03
2019-03-01T01:51:52.345Z,6.08
2019-03-01T01:52:52.299Z,6.01
2019-03-01T01:53:52.287Z,6.04
2019-03-01T01:54:52.278Z,6.03
2019-03-01T01:55:52.267Z,6.11
2019-03-01T01:56:52.254Z,6.08
2019-03-01T01:57:52.287Z,6.09
2019-03-01T01:58:52.233Z,6.14
2019-03-01T01:59:52.230Z,6.15
2019-03-01T02:00:52.212Z,6.03
2019-03-01T02:01:52.201Z,6.00
2019-03-01T02:02:52.190Z,6.03
2019-03-01T02:03:52.214Z,6.04
2019-03-01T02:04:52.168Z,6.08
2019-03-01T02:05:52.161Z,6.06
2019-03-01T02:06:52.144Z,6.01
2019-03-01T02:07:52.135Z,6.06
2019-03-01T02:08:52.123Z,6.03
2019-03-01T02:09:52.153Z,6.06
2019-03-01T02:10:52.100Z,5.94
2019-03-01T02:11:52.090Z,5.94
2019-03-01T02:12:52.080Z,5.91
2019-03-01T02:13:52.067Z,5.94
2019-03-01T02:14:52.059Z,5.97
2019-03-01T02:15:52.082Z,5.93
2019-03-01T02:16:52.038Z,5.93
2019-03-01T02:17:52.025Z,6.03
2019-03-01T02:18:57.873Z,6.04
2019-03-01T02:19:52.998Z,5.96
2019-03-01T02:20:51.994Z,6.08
2019-03-01T02:21:52.015Z,6.00
2019-03-01T02:22:51.972Z,6.09
2019-03-01T02:23:51.959Z,6.00
2019-03-01T02:24:51.948Z,6.03
2019-03-01T02:25:51.937Z,6.09
2019-03-01T02:26:51.924Z,6.04
2019-03-01T02:27:51.953Z,5.97
2019-03-01T02:28:51.903Z,5.99
2019-03-01T02:29:51.890Z,5.94
2019-03-01T02:30:51.881Z,6.04
2019-03-01T02:31:51.875Z,6.12
2019-03-01T02:32:51.872Z,6.01
2019-03-01T02:33:51.885Z,5.99
2019-03-01T02:34:51.835Z,6.04
2019-03-01T02:35:51.845Z,6.00
2019-03-01T02:36:51.813Z,6.09
2019-03-01T02:37:51.802Z,6.01
2019-03-01T02:38:51.792Z,6.04
2019-03-01T02:39:51.820Z,6.09
2019-03-01T02:40:51.772Z,6.00
2019-03-01T02:41:51.762Z,6.09
2019-03-01T02:42:51.746Z,6.04
2019-03-01T02:43:51.743Z,6.08
2019-03-01T02:44:51.725Z,6.08
2019-03-01T02:45:51.752Z,6.09
2019-03-01T02:46:51.723Z,6.00
2019-03-01T02:47:51.694Z,5.99
2019-03-01T02:48:51.681Z,5.89
2019-03-01T02:49:51.672Z,5.91
2019-03-01T02:50:51.659Z,5.83
2019-03-01T02:51:51.687Z,5.83
2019-03-01T02:52:51.638Z,5.81
2019-03-01T02:53:51.627Z,5.75
2019-03-01T02:54:51.613Z,5.72
2019-03-01T02:55:51.604Z,5.74
2019-03-01T02:56:51.593Z,5.78
2019-03-01T02:57:51.627Z,5.78
2019-03-01T02:58:51.573Z,5.78
2019-03-01T02:59:51.559Z,5.67
2019-03-01T03:00:51.550Z,5.78
2019-03-01T03:01:51.536Z,5.72
2019-03-01T03:02:51.525Z,5.72
2019-03-01T03:03:51.552Z,5.72
2019-03-01T03:04:51.503Z,5.71
2019-03-01T03:05:51.495Z,5.83
2019-03-01T03:06:51.482Z,5.76
2019-03-01T03:07:51.473Z,5.79
2019-03-01T03:08:51.478Z,5.81
2019-03-01T03:09:51.485Z,5.82
2019-03-01T03:10:51.438Z,5.90
2019-03-01T03:11:51.429Z,5.83
2019-03-01T03:12:51.420Z,5.89
2019-03-01T03:13:51.405Z,5.79
2019-03-01T03:14:51.405Z,5.89
2019-03-01T03:15:51.426Z,5.79
2019-03-01T03:16:51.378Z,5.94
2019-03-01T03:17:51.376Z,5.90
2019-03-01T03:18:51.352Z,5.89
2019-03-01T03:19:51.339Z,5.96
2019-03-01T03:20:51.342Z,6.01
2019-03-01T03:21:51.356Z,6.04
2019-03-01T03:22:51.307Z,6.11
2019-03-01T03:23:51.305Z,6.01
2019-03-01T03:24:51.285Z,6.03
2019-03-01T03:25:51.276Z,6.11
2019-03-01T03:26:51.336Z,6.18
2019-03-01T03:27:51.303Z,6.11
2019-03-01T03:28:51.240Z,6.11
2019-03-01T03:29:51.229Z,6.25
2019-03-01T03:30:51.220Z,6.25
2019-03-01T03:31:51.210Z,6.27
2019-03-01T03:32:51.201Z,6.25
2019-03-01T03:33:51.223Z,6.30
2019-03-01T03:34:51.175Z,6.25
2019-03-01T03:35:51.168Z,6.25
2019-03-01T03:36:51.154Z,6.27
2019-03-01T03:37:51.145Z,6.28
2019-03-01T03:38:51.130Z,6.31
2019-03-01T03:39:51.159Z,6.34
2019-03-01T03:40:51.108Z,6.33
2019-03-01T03:41:51.095Z,6.25
2019-03-01T03:42:51.086Z,6.28
2019-03-01T03:43:51.075Z,6.30
2019-03-01T03:44:51.063Z,6.25
2019-03-01T03:45:51.090Z,6.34
2019-03-01T03:46:51.043Z,6.33
2019-03-01T03:47:51.030Z,6.31
2019-03-01T03:48:51.021Z,6.25
2019-03-01T03:49:51.014Z,6.28
2019-03-01T03:50:51.002Z,6.38
2019-03-01T03:51:51.035Z,6.44
2019-03-01T03:52:50.976Z,6.30
2019-03-01T03:53:50.964Z,6.41
2019-03-01T03:54:50.955Z,6.46
2019-03-01T03:55:50.960Z,6.44
2019-03-01T03:56:50.933Z,6.44
2019-03-01T03:57:50.971Z,6.44
2019-03-01T03:58:50.912Z,6.49
2019-03-01T03:59:50.899Z,6.46
2019-03-01T04:00:50.886Z,6.49
2019-03-01T04:01:50.876Z,6.46
2019-03-01T04:02:50.873Z,6.49
2019-03-01T04:03:50.901Z,6.46
2019-03-01T04:04:50.842Z,6.46
2019-03-01T04:05:50.833Z,6.31
2019-03-01T04:06:50.821Z,6.30
2019-03-01T04:07:50.806Z,6.34
2019-03-01T04:08:50.797Z,6.11
2019-03-01T04:09:50.825Z,6.09
2019-03-01T04:10:50.779Z,6.12
2019-03-01T04:11:50.766Z,6.12
2019-03-01T04:12:50.752Z,6.17
2019-03-01T04:13:50.745Z,6.08
2019-03-01T04:14:50.732Z,6.03
2019-03-01T04:15:50.761Z,6.03
2019-03-01T04:16:50.707Z,5.91
2019-03-01T04:17:50.701Z,5.89
2019-03-01T04:18:50.688Z,5.99
2019-03-01T04:19:50.682Z,6.06
2019-03-01T04:20:50.665Z,5.96
2019-03-01T04:21:50.689Z,5.97
2019-03-01T04:22:50.643Z,6.04
2019-03-01T04:23:50.634Z,6.09
2019-03-01T04:24:50.619Z,6.03
2019-03-01T04:25:50.611Z,5.97
2019-03-01T04:26:50.601Z,6.06
2019-03-01T04:27:50.628Z,6.01
2019-03-01T04:28:50.576Z,6.00
2019-03-01T04:29:50.566Z,6.00
2019-03-01T04:30:50.553Z,6.01
2019-03-01T04:31:50.544Z,5.96
2019-03-01T04:32:50.532Z,5.93
2019-03-01T04:33:50.568Z,6.00
2019-03-01T04:34:50.513Z,5.91
2019-03-01T04:35:50.499Z,5.93
2019-03-01T04:36:50.488Z,5.86
2019-03-01T04:37:50.481Z,5.97
2019-03-01T04:38:50.467Z,5.86
2019-03-01T04:39:50.496Z,5.93
2019-03-01T04:40:50.444Z,5.90
2019-03-01T04:41:50.431Z,5.91
2019-03-01T04:42:50.421Z,6.00
2019-03-01T04:43:50.410Z,6.04
2019-03-01T04:44:50.399Z,5.99
2019-03-01T04:45:50.418Z,5.91
2019-03-01T04:46:50.385Z,5.96
2019-03-01T04:47:50.364Z,5.97
2019-03-01T04:48:50.361Z,5.93
2019-03-01T04:49:50.344Z,5.86
2019-03-01T04:50:50.369Z,5.79
2019-03-01T04:51:50.321Z,5.79
2019-03-01T04:52:50.313Z,5.83
2019-03-01T04:53:50.299Z,5.74
2019-03-01T04:54:50.287Z,5.86
2019-03-01T04:55:50.275Z,5.78
2019-03-01T04:56:50.293Z,5.85
2019-03-01T04:57:50.257Z,5.86
2019-03-01T04:58:50.243Z,5.82
2019-03-01T04:59:50.231Z,5.89
2019-03-01T05:00:50.221Z,5.82
2019-03-01T05:01:50.234Z,5.91
2019-03-01T05:02:50.198Z,5.72
2019-03-01T05:03:50.190Z,5.81
2019-03-01T05:04:50.175Z,5.76
2019-03-01T05:05:50.166Z,5.78
2019-03-01T05:06:50.192Z,5.75
2019-03-01T05:07:50.144Z,5.90
2019-03-01T05:08:50.138Z,5.76
2019-03-01T05:09:50.144Z,5.79
2019-03-01T05:10:50.114Z,5.83
2019-03-01T05:11:50.099Z,5.68
2019-03-01T05:12:50.110Z,5.74
2019-03-01T05:13:50.082Z,5.74
2019-03-01T05:14:50.065Z,5.75
2019-03-01T05:15:50.055Z,5.79
2019-03-01T05:16:50.045Z,5.72
2019-03-01T05:17:50.070Z,5.76
2019-03-01T05:18:50.022Z,5.75
2019-03-01T05:19:50.011Z,5.75
2019-03-01T05:20:49.999Z,5.75
2019-03-01T05:21:49.987Z,5.75
2019-03-01T05:22:49.976Z,5.72
2019-03-01T05:23:49.992Z,5.68
2019-03-01T05:24:49.956Z,5.74
2019-03-01T05:25:49.944Z,5.65
2019-03-01T05:26:49.932Z,5.74
2019-03-01T05:27:49.924Z,5.75
2019-03-01T05:28:49.935Z,5.74
2019-03-01T05:29:49.902Z,5.76
2019-03-01T05:30:49.890Z,5.68
2019-03-01T05:31:49.876Z,5.75
2019-03-01T05:32:49.866Z,5.76
2019-03-01T05:33:49.892Z,5.74
2019-03-01T05:34:49.848Z,5.71
2019-03-01T05:35:49.838Z,5.76
2019-03-01T05:36:49.822Z,5.75
2019-03-01T05:37:49.812Z,5.85
2019-03-01T05:38:49.806Z,5.81
2019-03-01T05:39:49.815Z,5.83
2019-03-01T05:40:49.778Z,5.85
2019-03-01T05:41:49.771Z,5.93
2019-03-01T05:42:49.754Z,5.93
2019-03-01T05:43:49.750Z,5.91
2019-03-01T05:44:49.769Z,5.96
2019-03-01T05:45:49.721Z,5.96
2019-03-01T05:46:49.717Z,6.04
2019-03-01T05:47:49.701Z,6.00
2019-03-01T05:48:49.689Z,5.99
2019-03-01T05:49:49.678Z,6.15
2019-03-01T05:50:49.704Z,6.11
2019-03-01T05:51:49.656Z,6.08
2019-03-01T05:52:49.646Z,6.14
2019-03-01T05:53:49.636Z,6.12
2019-03-01T05:54:49.624Z,6.17
2019-03-01T05:55:49.649Z,6.22
2019-03-01T05:56:49.604Z,6.28
2019-03-01T05:57:49.592Z,6.30
2019-03-01T05:58:49.584Z,6.30
2019-03-01T05:59:49.566Z,6.27
2019-03-01T06:00:49.556Z,6.31
2019-03-01T06:01:49.569Z,6.37
2019-03-01T06:02:49.534Z,6.36
2019-03-01T06:03:49.523Z,6.37
2019-03-01T06:04:49.512Z,6.38
2019-03-01T06:05:49.500Z,6.40
2019-03-01T06:06:49.528Z,6.44
2019-03-01T06:07:49.480Z,6.49
2019-03-01T06:08:49.466Z,6.43
2019-03-01T06:09:49.457Z,6.44
2019-03-01T06:10:50.773Z,6.43
2019-03-01T06:11:49.434Z,6.51
2019-03-01T06:12:49.449Z,6.43
2019-03-01T06:13:49.412Z,6.27
2019-03-01T06:14:49.401Z,6.30
2019-03-01T06:15:49.390Z,6.21
2019-03-01T06:16:49.376Z,6.36
2019-03-01T06:17:49.404Z,6.38
2019-03-01T06:18:49.355Z,6.48
2019-03-01T06:19:49.344Z,6.40
2019-03-01T06:20:49.335Z,6.40
2019-03-01T06:21:49.323Z,6.22
2019-03-01T06:22:49.340Z,6.36
2019-03-01T06:23:49.323Z,6.27
2019-03-01T06:24:49.288Z,6.25
2019-03-01T06:25:49.278Z,6.18
2019-03-01T06:26:49.266Z,6.25
2019-03-01T06:27:49.255Z,6.18
2019-03-01T06:28:49.284Z,6.22
2019-03-01T06:29:49.232Z,6.31
2019-03-01T06:30:52.047Z,6.34
2019-03-01T06:31:49.212Z,6.30
2019-03-01T06:32:49.197Z,6.22
2019-03-01T06:33:49.189Z,6.36
2019-03-01T06:34:49.204Z,6.40
2019-03-01T06:35:49.166Z,6.37
2019-03-01T06:36:49.161Z,6.22
2019-03-01T06:37:49.143Z,6.22
2019-03-01T06:38:49.137Z,6.22
2019-03-01T06:39:49.157Z,6.28
2019-03-01T06:40:49.118Z,6.28
2019-03-01T06:41:49.100Z,6.28
2019-03-01T06:42:49.091Z,6.25
2019-03-01T06:43:49.076Z,6.30
2019-03-01T06:44:49.067Z,6.33
2019-03-01T06:45:49.083Z,6.40
2019-03-01T06:46:49.044Z,6.44
2019-03-01T06:47:49.031Z,6.41
2019-03-01T06:48:49.021Z,6.46
2019-03-01T06:49:49.010Z,6.52
2019-03-01T06:50:49.034Z,6.51
2019-03-01T06:51:48.988Z,6.46
2019-03-01T06:52:48.976Z,6.59
2019-03-01T06:53:48.969Z,6.61
2019-03-01T06:54:48.956Z,6.66
2019-03-01T06:55:48.945Z,6.67
2019-03-01T06:56:48.961Z,6.73
2019-03-01T06:57:48.920Z,6.79
2019-03-01T06:58:48.913Z,6.67
2019-03-01T06:59:48.898Z,6.64
2019-03-01T07:00:50.366Z,6.73
2019-03-01T07:01:48.914Z,6.81
2019-03-01T07:02:48.865Z,6.70
2019-03-01T07:03:48.854Z,6.71
2019-03-01T07:04:48.843Z,6.77
2019-03-01T07:05:48.834Z,6.77
2019-03-01T07:06:48.821Z,6.73
2019-03-01T07:07:48.841Z,6.84
2019-03-01T07:08:48.811Z,6.80
2019-03-01T07:09:48.791Z,6.84
2019-03-01T07:10:48.782Z,6.76
2019-03-01T07:11:48.767Z,6.84
2019-03-01T07:12:48.792Z,6.79
2019-03-01T07:13:48.750Z,6.89
2019-03-01T07:14:48.741Z,6.94
2019-03-01T07:15:48.722Z,6.87
2019-03-01T07:16:48.721Z,6.95
2019-03-01T07:17:48.699Z,6.94
2019-03-01T07:18:48.717Z,6.92
2019-03-01T07:19:48.683Z,6.91
2019-03-01T07:20:48.672Z,6.94
2019-03-01T07:21:48.663Z,6.99
2019-03-01T07:22:48.648Z,6.97
2019-03-01T07:23:48.671Z,6.94
2019-03-01T07:24:48.629Z,6.92
2019-03-01T07:25:48.617Z,6.97
2019-03-01T07:26:48.605Z,6.98
2019-03-01T07:27:48.595Z,7.02
2019-03-01T07:28:48.583Z,6.91
2019-03-01T07:29:48.607Z,6.89
2019-03-01T07:30:48.560Z,6.97
2019-03-01T07:31:48.548Z,6.92
2019-03-01T07:32:48.538Z,6.89
2019-03-01T07:33:48.527Z,6.98
2019-03-01T07:34:48.553Z,6.99
2019-03-01T07:35:48.507Z,6.95
2019-03-01T07:36:48.500Z,7.06
2019-03-01T07:37:48.485Z,7.05
2019-03-01T07:38:48.473Z,6.91
2019-03-01T07:39:48.462Z,6.94
2019-03-01T07:40:48.477Z,6.94
2019-03-01T07:41:49.536Z,6.89
2019-03-01T07:42:48.429Z,6.91
2019-03-01T07:43:48.421Z,6.91
2019-03-01T07:44:48.410Z,6.98
2019-03-01T07:45:48.433Z,7.02
2019-03-01T07:46:52.865Z,7.05
2019-03-01T07:47:48.377Z,7.03
2019-03-01T07:48:48.366Z,7.02
2019-03-01T07:49:48.355Z,7.05
2019-03-01T07:50:48.344Z,7.05
2019-03-01T07:51:48.360Z,7.02
2019-03-01T07:52:48.323Z,7.03
2019-03-01T07:53:48.311Z,7.03
2019-03-01T07:54:49.400Z,7.06
2019-03-01T07:55:48.294Z,7.03
2019-03-01T07:56:48.317Z,7.03
2019-03-01T07:57:49.810Z,7.03
2019-03-01T07:58:48.260Z,7.10
2019-03-01T07:59:48.248Z,7.13
2019-03-01T08:00:53.272Z,7.05
2019-03-01T08:01:49.280Z,7.09
2019-03-01T08:02:48.216Z,7.12
2019-03-01T08:03:52.413Z,7.09
2019-03-01T08:04:48.194Z,7.07
2019-03-01T08:05:48.185Z,7.10
2019-03-01T08:06:48.791Z,7.10
2019-03-01T08:07:55.597Z,7.06
2019-03-01T08:08:49.154Z,7.05
2019-03-01T08:09:48.142Z,7.16
2019-03-01T08:10:48.129Z,7.09
2019-03-01T08:11:48.118Z,7.17
2019-03-01T08:12:48.154Z,7.13
2019-03-01T08:13:49.339Z,7.10
2019-03-01T08:14:48.088Z,7.15
2019-03-01T08:15:48.078Z,7.13
2019-03-01T08:16:48.068Z,7.16
2019-03-01T08:17:48.055Z,7.12
2019-03-01T08:18:48.070Z,7.21
2019-03-01T08:19:48.033Z,7.15
2019-03-01T08:20:48.024Z,7.07
2019-03-01T08:21:49.830Z,7.10
2019-03-01T08:22:49.465Z,7.12
2019-03-01T08:23:49.868Z,7.05
2019-03-01T08:24:47.980Z,7.05
2019-03-01T08:25:47.970Z,7.15
2019-03-01T08:26:47.957Z,7.05
2019-03-01T08:27:50.327Z,7.03
2019-03-01T08:28:47.936Z,7.07
2019-03-01T08:29:47.975Z,7.06
2019-03-01T08:30:47.916Z,7.03
2019-03-01T08:31:47.906Z,7.17
2019-03-01T08:32:47.893Z,7.09
2019-03-01T08:33:47.883Z,7.16
2019-03-01T08:34:49.906Z,7.13
2019-03-01T08:35:48.862Z,7.23
2019-03-01T08:36:47.851Z,7.21
2019-03-01T08:37:49.877Z,7.21
2019-03-01T08:38:48.830Z,7.25
2019-03-01T08:39:49.648Z,7.27
2019-03-01T08:40:49.925Z,7.30
2019-03-01T08:41:47.802Z,7.31
2019-03-01T08:42:47.787Z,7.35
2019-03-01T08:43:48.084Z,7.42
2019-03-01T08:44:47.768Z,7.37
2019-03-01T08:45:47.779Z,7.37
2019-03-01T08:46:47.745Z,7.43
2019-03-01T08:47:48.844Z,7.40
2019-03-01T08:48:47.721Z,7.40
2019-03-01T08:49:47.710Z,7.40
2019-03-01T08:50:47.736Z,7.53
2019-03-01T08:51:47.691Z,7.45
2019-03-01T08:52:47.679Z,7.43
2019-03-01T08:53:48.249Z,7.58
2019-03-01T08:54:47.657Z,7.58
2019-03-01T08:55:47.645Z,7.61
2019-03-01T08:56:50.363Z,7.61
2019-03-01T08:57:47.623Z,7.67
2019-03-01T08:58:47.617Z,7.69
2019-03-01T08:59:47.604Z,7.68
2019-03-01T09:00:47.592Z,7.69
2019-03-01T09:01:47.641Z,7.75
2019-03-01T09:02:47.576Z,7.69
2019-03-01T09:03:47.560Z,7.83
2019-03-01T09:04:50.989Z,7.85
2019-03-01T09:05:47.538Z,7.79
2019-03-01T09:06:47.528Z,7.77
2019-03-01T09:07:47.556Z,7.86
2019-03-01T09:08:47.506Z,7.87
2019-03-01T09:09:47.494Z,7.90
2019-03-01T09:10:47.486Z,7.90
2019-03-01T09:11:47.472Z,7.87
2019-03-01T09:12:47.501Z,7.85
2019-03-01T09:13:47.454Z,7.87
2019-03-01T09:14:47.438Z,7.90
2019-03-01T09:15:49.346Z,7.90
2019-03-01T09:16:47.417Z,7.90
2019-03-01T09:17:47.406Z,7.92
2019-03-01T09:18:50.122Z,7.90
2019-03-01T09:19:47.382Z,7.87
2019-03-01T09:20:47.372Z,7.85
2019-03-01T09:21:50.267Z,7.77
2019-03-01T09:22:47.350Z,7.69
2019-03-01T09:23:47.971Z,7.68
2019-03-01T09:24:47.351Z,7.60
2019-03-01T09:25:47.319Z,7.57
2019-03-01T09:26:47.309Z,7.52
2019-03-01T09:27:47.297Z,7.60
2019-03-01T09:28:47.286Z,7.69
2019-03-01T09:29:47.301Z,7.74
2019-03-01T09:30:47.287Z,7.71
2019-03-01T09:31:47.253Z,7.61
2019-03-01T09:32:47.241Z,7.64
2019-03-01T09:33:47.231Z,7.63
2019-03-01T09:34:47.262Z,7.68
2019-03-01T09:35:47.208Z,7.63
2019-03-01T09:36:47.196Z,7.69
2019-03-01T09:37:47.186Z,7.71
2019-03-01T09:38:47.176Z,7.77
2019-03-01T09:39:50.152Z,7.80
2019-03-01T09:40:47.177Z,7.83
2019-03-01T09:41:47.143Z,7.80
2019-03-01T09:42:47.471Z,7.83
2019-03-01T09:43:47.125Z,7.80
2019-03-01T09:44:47.108Z,7.75
2019-03-01T09:45:48.825Z,7.85
2019-03-01T09:46:47.086Z,7.82
2019-03-01T09:47:47.075Z,7.83
2019-03-01T09:48:49.420Z,7.74
2019-03-01T09:49:47.052Z,7.79
2019-03-01T09:50:47.042Z,7.68
2019-03-01T09:51:49.808Z,7.72
2019-03-01T09:52:47.021Z,7.68
2019-03-01T09:53:47.025Z,7.82
2019-03-01T09:54:46.999Z,7.71
2019-03-01T09:55:46.987Z,7.71
2019-03-01T09:56:47.013Z,7.57
2019-03-01T09:57:46.965Z,7.74
2019-03-01T09:58:46.951Z,7.75
2019-03-01T09:59:46.945Z,7.74
2019-03-01T10:00:56.048Z,7.72
2019-03-01T10:01:47.954Z,7.69
2019-03-01T10:02:46.916Z,7.72
2019-03-01T10:03:46.897Z,7.68
2019-03-01T10:04:46.886Z,7.74
2019-03-01T10:05:46.894Z,7.72
2019-03-01T10:06:46.865Z,7.63
2019-03-01T10:07:46.878Z,7.63
2019-03-01T10:08:46.849Z,7.58
2019-03-01T10:09:46.829Z,7.61
2019-03-01T10:10:46.821Z,7.64
2019-03-01T10:11:46.809Z,7.58
2019-03-01T10:12:46.833Z,7.68
2019-03-01T10:13:46.789Z,7.61
2019-03-01T10:14:46.775Z,7.68
2019-03-01T10:15:46.765Z,7.67
2019-03-01T10:16:46.753Z,7.67
2019-03-01T10:17:46.741Z,7.60
2019-03-01T10:18:46.756Z,7.57
2019-03-01T10:19:46.721Z,7.64
2019-03-01T10:20:46.710Z,7.61
2019-03-01T10:21:46.701Z,7.60
2019-03-01T10:22:46.686Z,7.69
2019-03-01T10:23:46.719Z,7.71
2019-03-01T10:24:46.689Z,7.75
2019-03-01T10:25:46.655Z,7.72
2019-03-01T10:26:46.643Z,7.72
2019-03-01T10:27:46.633Z,7.75
2019-03-01T10:28:46.618Z,7.75
2019-03-01T10:29:46.635Z,7.71
2019-03-01T10:30:46.606Z,7.74
2019-03-01T10:31:46.586Z,7.60
2019-03-01T10:32:46.577Z,7.68
2019-03-01T10:33:46.563Z,7.61
2019-03-01T10:34:46.588Z,7.61
2019-03-01T10:35:46.545Z,7.75
2019-03-01T10:36:46.530Z,7.60
2019-03-01T10:37:46.520Z,7.69
2019-03-01T10:38:46.509Z,7.68
2019-03-01T10:39:54.916Z,7.83
2019-03-01T10:40:47.546Z,7.72
2019-03-01T10:41:46.477Z,7.82
2019-03-01T10:42:46.474Z,7.82
2019-03-01T10:43:46.453Z,7.90
2019-03-01T10:44:46.440Z,7.80
2019-03-01T10:45:46.468Z,7.80
2019-03-01T10:46:46.423Z,7.80
2019-03-01T10:47:46.410Z,7.68
2019-03-01T10:48:46.395Z,7.55
2019-03-01T10:49:46.385Z,7.60
2019-03-01T10:50:46.375Z,7.67
2019-03-01T10:51:46.388Z,7.55
2019-03-01T10:52:46.351Z,7.61
2019-03-01T10:53:53.376Z,7.53
2019-03-01T10:54:46.330Z,7.60
2019-03-01T10:55:46.320Z,7.64
2019-03-01T10:56:46.344Z,7.64
2019-03-01T10:57:46.297Z,7.60
2019-03-01T10:58:46.288Z,7.63
2019-03-01T10:59:46.288Z,7.58
2019-03-01T11:00:46.265Z,7.63
2019-03-01T11:01:46.253Z,7.58
2019-03-01T11:02:46.266Z,7.57
2019-03-01T11:03:46.232Z,7.64
2019-03-01T11:04:46.252Z,7.58
2019-03-01T11:05:46.210Z,7.63
2019-03-01T11:06:46.203Z,7.55
2019-03-01T11:07:46.223Z,7.58
2019-03-01T11:08:46.180Z,7.49
2019-03-01T11:09:46.166Z,7.57
2019-03-01T11:10:46.152Z,7.58
2019-03-01T11:11:46.142Z,7.46
2019-03-01T11:12:46.131Z,7.43
2019-03-01T11:13:46.147Z,7.48
2019-03-01T11:14:46.108Z,7.50
2019-03-01T11:15:46.097Z,7.39
2019-03-01T11:16:46.089Z,7.37
2019-03-01T11:17:46.078Z,7.37
2019-03-01T11:18:46.115Z,7.43
2019-03-01T11:19:46.053Z,7.37
2019-03-01T11:20:46.041Z,7.39
2019-03-01T11:21:46.036Z,7.39
2019-03-01T11:22:46.020Z,7.45
2019-03-01T11:23:46.036Z,7.40
2019-03-01T11:24:46.065Z,7.45
2019-03-01T11:25:46.023Z,7.37
2019-03-01T11:26:45.977Z,7.42
2019-03-01T11:27:45.966Z,7.45
2019-03-01T11:28:45.954Z,7.37
2019-03-01T11:29:45.981Z,7.43
2019-03-01T11:30:45.933Z,7.43
2019-03-01T11:31:45.928Z,7.43
2019-03-01T11:32:45.913Z,7.46
2019-03-01T11:33:45.903Z,7.48
2019-03-01T11:34:45.889Z,7.37
2019-03-01T11:35:45.904Z,7.45
2019-03-01T11:36:45.868Z,7.39
2019-03-01T11:37:45.859Z,7.37
2019-03-01T11:38:45.846Z,7.37
2019-03-01T11:39:45.838Z,7.30
2019-03-01T11:40:45.862Z,7.25
2019-03-01T11:41:45.815Z,7.23
2019-03-01T11:42:45.803Z,7.20
2019-03-01T11:43:45.793Z,7.24
2019-03-01T11:44:45.783Z,7.31
2019-03-01T11:45:45.771Z,7.27
2019-03-01T11:46:45.786Z,7.30
2019-03-01T11:47:45.749Z,7.32
2019-03-01T11:48:45.739Z,7.34
2019-03-01T11:49:45.731Z,7.43
2019-03-01T11:50:45.719Z,7.45
2019-03-01T11:51:45.747Z,7.45
2019-03-01T11:52:45.696Z,7.49
2019-03-01T11:53:45.691Z,7.53
2019-03-01T11:54:45.675Z,7.43
2019-03-01T11:55:45.666Z,7.45
2019-03-01T11:56:45.655Z,7.43
2019-03-01T11:57:45.672Z,7.43
2019-03-01T11:58:45.634Z,7.53
2019-03-01T11:59:45.626Z,7.45
2019-03-01T12:00:52.016Z,7.46
2019-03-01T12:01:46.602Z,7.52
2019-03-01T12:02:45.627Z,7.42
2019-03-01T12:03:45.586Z,7.34
2019-03-01T12:04:45.573Z,7.45
2019-03-01T12:05:45.558Z,7.32
2019-03-01T12:06:45.566Z,7.48
2019-03-01T12:07:45.543Z,7.46
2019-03-01T12:08:45.554Z,7.40
2019-03-01T12:09:45.521Z,7.45
2019-03-01T12:10:45.505Z,7.42
2019-03-01T12:11:45.494Z,7.37
2019-03-01T12:12:45.485Z,7.31
2019-03-01T12:13:45.513Z,7.28
2019-03-01T12:14:45.462Z,7.28
2019-03-01T12:15:45.451Z,7.24
2019-03-01T12:16:45.443Z,7.27
2019-03-01T12:17:45.432Z,7.21
2019-03-01T12:18:45.418Z,7.16
2019-03-01T12:19:45.434Z,7.27
2019-03-01T12:20:45.398Z,7.28
2019-03-01T12:21:45.386Z,7.28
2019-03-01T12:22:45.378Z,7.31
2019-03-01T12:23:45.368Z,7.27
2019-03-01T12:24:45.394Z,7.34
2019-03-01T12:25:45.346Z,7.30
2019-03-01T12:26:45.337Z,7.34
2019-03-01T12:27:45.326Z,7.37
2019-03-01T12:28:45.311Z,7.31
2019-03-01T12:29:45.302Z,7.30
2019-03-01T12:30:45.318Z,7.28
2019-03-01T12:31:45.279Z,7.34
2019-03-01T12:32:45.269Z,7.30
2019-03-01T12:33:45.265Z,7.27
2019-03-01T12:34:45.248Z,7.28
2019-03-01T12:35:45.273Z,7.25
2019-03-01T12:36:45.226Z,7.25
2019-03-01T12:37:45.214Z,7.21
2019-03-01T12:38:45.205Z,7.20
2019-03-01T12:39:45.195Z,7.24
2019-03-01T12:40:45.186Z,7.20
2019-03-01T12:41:45.198Z,7.21
2019-03-01T12:42:45.163Z,7.24
2019-03-01T12:43:45.152Z,7.27
2019-03-01T12:44:45.142Z,7.21
2019-03-01T12:45:45.130Z,7.21
2019-03-01T12:46:45.160Z,7.27
2019-03-01T12:47:45.114Z,7.28
2019-03-01T12:48:45.098Z,7.28
2019-03-01T12:49:45.091Z,7.32
2019-03-01T12:50:45.076Z,7.28
2019-03-01T12:51:45.066Z,7.28
2019-03-01T12:52:45.080Z,7.25
2019-03-01T12:53:45.047Z,7.30
2019-03-01T12:54:45.034Z,7.25
2019-03-01T12:55:45.022Z,7.31
2019-03-01T12:56:45.014Z,7.27
2019-03-01T12:57:45.039Z,7.28
2019-03-01T12:58:44.991Z,7.30
2019-03-01T12:59:44.981Z,7.28
2019-03-01T13:00:44.969Z,7.27
2019-03-01T13:01:44.959Z,7.30
2019-03-01T13:02:44.949Z,7.25
2019-03-01T13:03:44.963Z,7.28
2019-03-01T13:04:44.927Z,7.25
2019-03-01T13:05:44.918Z,7.25
2019-03-01T13:06:44.907Z,7.25
2019-03-01T13:07:44.895Z,7.17
2019-03-01T13:08:47.710Z,7.17
2019-03-01T13:09:45.880Z,7.06
2019-03-01T13:10:46.175Z,7.09
2019-03-01T13:11:44.853Z,7.05
2019-03-01T13:12:44.840Z,7.05
2019-03-01T13:13:44.832Z,7.06
2019-03-01T13:14:44.845Z,7.03
2019-03-01T13:15:45.415Z,6.95
2019-03-01T13:16:44.798Z,6.97
2019-03-01T13:17:44.787Z,6.88
2019-03-01T13:18:47.728Z,6.87